Погода Такуаритингана 2 недели

Сан-Паулу, Бразилия

16 - 29 июля
  • 16июля
    Сегодня
    +15°
    +28°
    Облачно с прояснениями
    ВремяПогодаТемператураВлажностьДавлениеВетер, м/сВероятность осадков
    00:00Ясно и безоблачно+18°C69 %715 мм3.4 м/с5 %
    03:00Ясно и безоблачно+17°C79 %715 мм3.5 м/с5 %
    06:00Ясно и безоблачно+16°C86 %714 мм3.5 м/с5 %
    09:00Ясно и безоблачно+19°C67 %716 мм3.3 м/с5 %
    12:00Ясно и безоблачно+26°C35 %717 мм2.8 м/с5 %
    15:00Облачно с прояснениями+28°C29 %715 мм1.4 м/с5 %
    18:00Ясно и безоблачно+26°C39 %715 мм1.6 м/с5 %
    21:00Ясно и безоблачно+20°C56 %716 мм2.3 м/с5 %
  • 17июля
    Среда
    +16°
    +29°
    Ясно и безоблачно
    ВремяПогодаТемператураВлажностьДавлениеВетер, м/сВероятность осадков
    00:00Ясно и безоблачно+19°C60 %716 мм3.0 м/с5 %
    03:00Ясно и безоблачно+17°C74 %715 мм3.2 м/с5 %
    06:00Ясно и безоблачно+16°C90 %715 мм2.3 м/с5 %
    09:00Ясно и безоблачно+20°C70 %717 мм2.5 м/с5 %
    12:00Ясно и безоблачно+27°C40 %717 мм1.2 м/с5 %
    15:00Ясно и безоблачно+28°C32 %715 мм2.0 м/с5 %
    18:00Ясно и безоблачно+24°C48 %714 мм2.4 м/с5 %
    21:00Ясно и безоблачно+21°C61 %714 мм2.3 м/с5 %
  • 18июля
    Четверг
    +16°
    +30°
    Ясно и безоблачно
    ВремяПогодаТемператураВлажностьДавлениеВетер, м/сВероятность осадков
    00:00Ясно и безоблачно+19°C71 %714 мм2.2 м/с5 %
    03:00Ясно и безоблачно+17°C75 %713 мм2.4 м/с5 %
    06:00Ясно и безоблачно+17°C84 %713 мм2.9 м/с5 %
    09:00Ясно и безоблачно+21°C66 %715 мм2.7 м/с5 %
    12:00Ясно и безоблачно+27°C37 %716 мм2.0 м/с5 %
    15:00Ясно и безоблачно+29°C31 %714 мм1.0 м/с5 %
    18:00Ясно и безоблачно+25°C47 %714 мм2.2 м/с5 %
    21:00Ясно и безоблачно+23°C50 %715 мм3.0 м/с5 %
  • 19июля
    Пятница
    +17°
    +30°
    Ясно и безоблачно
    ВремяПогодаТемператураВлажностьДавлениеВетер, м/сВероятность осадков
    00:00Ясно и безоблачно+19°C61 %714 мм2.6 м/с5 %
    03:00Ясно и безоблачно+17°C65 %714 мм3.5 м/с5 %
    06:00Ясно и безоблачно+17°C69 %714 мм3.5 м/с5 %
    09:00Ясно и безоблачно+21°C61 %716 мм2.9 м/с5 %
    12:00Ясно и безоблачно+28°C36 %717 мм2.1 м/с5 %
    15:00Ясно и безоблачно+30°C30 %715 мм1.6 м/с5 %
    18:00Ясно и безоблачно+26°C48 %715 мм2.4 м/с5 %
    21:00Ясно и безоблачно+23°C58 %716 мм2.7 м/с5 %
  • 20июля
    Суббота
    +18°
    +31°
    Ясно и безоблачно
    ВремяПогодаТемператураВлажностьДавлениеВетер, м/сВероятность осадков
    00:00Ясно и безоблачно+19°C71 %715 мм2.3 м/с5 %
    03:00Ясно и безоблачно+18°C76 %714 мм2.7 м/с5 %
    06:00Ясно и безоблачно+18°C75 %714 мм2.8 м/с5 %
    09:00Ясно и безоблачно+22°C57 %716 мм3.1 м/с5 %
    12:00Ясно и безоблачно+28°C31 %716 мм2.0 м/с5 %
    15:00Ясно и безоблачно+30°C27 %714 мм1.2 м/с5 %
    18:00Ясно и безоблачно+26°C41 %714 мм2.1 м/с5 %
    21:00Ясно и безоблачно+23°C59 %714 мм3.0 м/с5 %
Мы используем cookies
Соглашаюсь